sensor_id;sensor_type;location;lat;lon;timestamp;temperature;humidity
3226;DHT22;1625;49.884;8.666;2023-03-22T02:02:18;12.10;99.90
3226;DHT22;1625;49.884;8.666;2023-03-22T02:04:46;12.10;99.90
3226;DHT22;1625;49.884;8.666;2023-03-22T02:07:16;12.10;99.90
3226;DHT22;1625;49.884;8.666;2023-03-22T02:09:50;12.10;99.90
3226;DHT22;1625;49.884;8.666;2023-03-22T02:20:50;12.10;99.90
3226;DHT22;1625;49.884;8.666;2023-03-22T02:26:28;12.10;99.90
3226;DHT22;1625;49.884;8.666;2023-03-22T02:29:07;12.10;99.90
3226;DHT22;1625;49.884;8.666;2023-03-22T02:37:47;12.10;99.90
3226;DHT22;1625;49.884;8.666;2023-03-22T02:40:37;12.10;99.90
3226;DHT22;1625;49.884;8.666;2023-03-22T02:43:17;12.10;99.90
3226;DHT22;1625;49.884;8.666;2023-03-22T02:45:54;12.10;99.90
3226;DHT22;1625;49.884;8.666;2023-03-22T02:48:59;12.10;99.90
3226;DHT22;1625;49.884;8.666;2023-03-22T02:51:41;12.10;99.90
3226;DHT22;1625;49.884;8.666;2023-03-22T02:55:08;12.10;99.90
3226;DHT22;1625;49.884;8.666;2023-03-22T02:57:28;12.10;99.90
3226;DHT22;1625;49.884;8.666;2023-03-22T02:59:58;12.10;99.90
3226;DHT22;1625;49.884;8.666;2023-03-22T03:02:25;12.00;99.90
3226;DHT22;1625;49.884;8.666;2023-03-22T03:04:51;12.10;99.90
3226;DHT22;1625;49.884;8.666;2023-03-22T03:07:20;12.00;99.90
3226;DHT22;1625;49.884;8.666;2023-03-22T03:09:49;12.10;99.90
3226;DHT22;1625;49.884;8.666;2023-03-22T03:12:20;12.10;99.90
3226;DHT22;1625;49.884;8.666;2023-03-22T03:14:46;12.10;99.90
3226;DHT22;1625;49.884;8.666;2023-03-22T03:17:33;12.10;99.90
3226;DHT22;1625;49.884;8.666;2023-03-22T03:28:51;12.00;99.90
3226;DHT22;1625;49.884;8.666;2023-03-22T03:31:30;12.00;99.90
3226;DHT22;1625;49.884;8.666;2023-03-22T03:36:57;12.00;99.90
3226;DHT22;1625;49.884;8.666;2023-03-22T03:39:27;12.10;99.90
3226;DHT22;1625;49.884;8.666;2023-03-22T03:41:55;12.10;99.90
3226;DHT22;1625;49.884;8.666;2023-03-22T03:44:22;12.10;99.90
3226;DHT22;1625;49.884;8.666;2023-03-22T03:46:49;12.10;99.90
3226;DHT22;1625;49.884;8.666;2023-03-22T03:49:16;12.10;99.90
3226;DHT22;1625;49.884;8.666;2023-03-22T03:51:51;12.00;99.90
3226;DHT22;1625;49.884;8.666;2023-03-22T03:54:17;12.00;99.90
3226;DHT22;1625;49.884;8.666;2023-03-22T03:56:43;12.10;99.90
3226;DHT22;1625;49.884;8.666;2023-03-22T03:59:08;12.10;99.90
3226;DHT22;1625;49.884;8.666;2023-03-22T04:01:34;12.10;99.90
3226;DHT22;1625;49.884;8.666;2023-03-22T04:04:00;12.10;99.90
3226;DHT22;1625;49.884;8.666;2023-03-22T04:06:26;12.10;99.90
3226;DHT22;1625;49.884;8.666;2023-03-22T04:08:52;12.00;99.90
3226;DHT22;1625;49.884;8.666;2023-03-22T04:11:18;12.00;99.90
3226;DHT22;1625;49.884;8.666;2023-03-22T04:13:44;12.10;99.90
3226;DHT22;1625;49.884;8.666;2023-03-22T04:16:10;12.00;99.90
3226;DHT22;1625;49.884;8.666;2023-03-22T04:18:35;12.00;99.90
3226;DHT22;1625;49.884;8.666;2023-03-22T04:21:01;12.00;99.90
3226;DHT22;1625;49.884;8.666;2023-03-22T04:23:27;12.00;99.90
3226;DHT22;1625;49.884;8.666;2023-03-22T04:25:53;12.00;99.90
3226;DHT22;1625;49.884;8.666;2023-03-22T04:28:19;12.00;99.90
3226;DHT22;1625;49.884;8.666;2023-03-22T04:30:46;12.00;99.90
3226;DHT22;1625;49.884;8.666;2023-03-22T04:33:15;12.00;99.90
3226;DHT22;1625;49.884;8.666;2023-03-22T04:35:41;12.00;99.90
3226;DHT22;1625;49.884;8.666;2023-03-22T04:38:06;12.00;99.90
3226;DHT22;1625;49.884;8.666;2023-03-22T04:40:33;12.00;99.90
3226;DHT22;1625;49.884;8.666;2023-03-22T04:43:03;12.00;99.90
3226;DHT22;1625;49.884;8.666;2023-03-22T04:45:29;12.00;99.90
3226;DHT22;1625;49.884;8.666;2023-03-22T04:47:58;12.00;99.90
3226;DHT22;1625;49.884;8.666;2023-03-22T04:50:24;12.00;99.90
3226;DHT22;1625;49.884;8.666;2023-03-22T04:52:52;12.00;99.90
3226;DHT22;1625;49.884;8.666;2023-03-22T04:55:18;12.00;99.90
3226;DHT22;1625;49.884;8.666;2023-03-22T04:57:43;11.90;99.90
3226;DHT22;1625;49.884;8.666;2023-03-22T05:00:09;11.90;99.90
3226;DHT22;1625;49.884;8.666;2023-03-22T05:02:35;11.90;99.90
3226;DHT22;1625;49.884;8.666;2023-03-22T05:05:05;11.80;99.90
3226;DHT22;1625;49.884;8.666;2023-03-22T05:07:31;11.90;99.90
3226;DHT22;1625;49.884;8.666;2023-03-22T05:09:56;11.80;99.90
3226;DHT22;1625;49.884;8.666;2023-03-22T05:12:22;11.80;99.90
3226;DHT22;1625;49.884;8.666;2023-03-22T05:14:48;11.80;99.90
3226;DHT22;1625;49.884;8.666;2023-03-22T05:17:13;11.80;99.90
3226;DHT22;1625;49.884;8.666;2023-03-22T05:19:39;11.70;99.90
3226;DHT22;1625;49.884;8.666;2023-03-22T05:22:04;11.70;99.90
3226;DHT22;1625;49.884;8.666;2023-03-22T05:24:30;11.60;99.90
3226;DHT22;1625;49.884;8.666;2023-03-22T05:26:56;11.60;99.90
3226;DHT22;1625;49.884;8.666;2023-03-22T05:29:26;11.60;99.90
3226;DHT22;1625;49.884;8.666;2023-03-22T05:31:51;11.70;99.90
3226;DHT22;1625;49.884;8.666;2023-03-22T05:34:17;11.70;99.90
3226;DHT22;1625;49.884;8.666;2023-03-22T05:36:44;11.70;99.90
3226;DHT22;1625;49.884;8.666;2023-03-22T05:39:10;11.70;99.90
3226;DHT22;1625;49.884;8.666;2023-03-22T05:41:36;11.70;99.90
3226;DHT22;1625;49.884;8.666;2023-03-22T05:44:01;11.60;99.90
3226;DHT22;1625;49.884;8.666;2023-03-22T05:46:27;11.60;99.90
3226;DHT22;1625;49.884;8.666;2023-03-22T05:48:53;11.70;99.90
3226;DHT22;1625;49.884;8.666;2023-03-22T05:51:18;11.70;99.90
3226;DHT22;1625;49.884;8.666;2023-03-22T05:53:47;11.70;99.90
3226;DHT22;1625;49.884;8.666;2023-03-22T05:56:14;11.80;99.90
3226;DHT22;1625;49.884;8.666;2023-03-22T05:58:40;11.80;99.90
3226;DHT22;1625;49.884;8.666;2023-03-22T06:01:09;11.80;99.90
3226;DHT22;1625;49.884;8.666;2023-03-22T06:03:36;11.80;99.90
3226;DHT22;1625;49.884;8.666;2023-03-22T06:06:01;11.80;99.90
3226;DHT22;1625;49.884;8.666;2023-03-22T06:08:31;11.80;99.90
3226;DHT22;1625;49.884;8.666;2023-03-22T06:10:58;11.80;99.90
3226;DHT22;1625;49.884;8.666;2023-03-22T06:13:23;11.80;99.90
3226;DHT22;1625;49.884;8.666;2023-03-22T06:15:49;11.80;99.90
3226;DHT22;1625;49.884;8.666;2023-03-22T06:18:14;11.80;99.90
3226;DHT22;1625;49.884;8.666;2023-03-22T06:20:40;11.80;99.90
3226;DHT22;1625;49.884;8.666;2023-03-22T06:23:06;11.70;99.90
3226;DHT22;1625;49.884;8.666;2023-03-22T06:25:32;11.70;99.90
3226;DHT22;1625;49.884;8.666;2023-03-22T06:27:57;11.70;99.90
3226;DHT22;1625;49.884;8.666;2023-03-22T06:30:23;11.80;99.90
3226;DHT22;1625;49.884;8.666;2023-03-22T06:32:48;11.70;99.90
3226;DHT22;1625;49.884;8.666;2023-03-22T06:35:14;11.70;99.90
3226;DHT22;1625;49.884;8.666;2023-03-22T06:37:40;11.70;99.90
3226;DHT22;1625;49.884;8.666;2023-03-22T06:40:06;11.70;99.90
3226;DHT22;1625;49.884;8.666;2023-03-22T06:42:32;11.70;99.90
3226;DHT22;1625;49.884;8.666;2023-03-22T06:44:58;11.80;99.90
3226;DHT22;1625;49.884;8.666;2023-03-22T06:47:23;11.80;99.90
3226;DHT22;1625;49.884;8.666;2023-03-22T06:49:49;11.80;99.90
3226;DHT22;1625;49.884;8.666;2023-03-22T06:52:15;11.80;99.90
3226;DHT22;1625;49.884;8.666;2023-03-22T06:54:41;11.90;99.90
3226;DHT22;1625;49.884;8.666;2023-03-22T06:57:06;12.10;99.90
3226;DHT22;1625;49.884;8.666;2023-03-22T06:59:32;12.20;99.90
3226;DHT22;1625;49.884;8.666;2023-03-22T07:01:57;12.20;99.90
3226;DHT22;1625;49.884;8.666;2023-03-22T07:04:23;12.20;99.90
3226;DHT22;1625;49.884;8.666;2023-03-22T07:06:50;12.30;99.90
3226;DHT22;1625;49.884;8.666;2023-03-22T07:09:15;12.30;99.90
3226;DHT22;1625;49.884;8.666;2023-03-22T07:11:41;12.30;99.90
3226;DHT22;1625;49.884;8.666;2023-03-22T07:14:06;12.30;99.90
3226;DHT22;1625;49.884;8.666;2023-03-22T07:16:32;12.30;99.90
3226;DHT22;1625;49.884;8.666;2023-03-22T07:18:58;12.20;99.90
3226;DHT22;1625;49.884;8.666;2023-03-22T07:21:23;12.20;99.90
3226;DHT22;1625;49.884;8.666;2023-03-22T07:23:49;12.00;99.90
3226;DHT22;1625;49.884;8.666;2023-03-22T07:26:14;12.00;99.90
3226;DHT22;1625;49.884;8.666;2023-03-22T07:28:40;12.00;99.90
3226;DHT22;1625;49.884;8.666;2023-03-22T07:31:09;12.10;99.90
3226;DHT22;1625;49.884;8.666;2023-03-22T07:33:36;12.20;99.90
3226;DHT22;1625;49.884;8.666;2023-03-22T07:36:03;12.30;99.90
3226;DHT22;1625;49.884;8.666;2023-03-22T07:38:28;12.40;99.90
3226;DHT22;1625;49.884;8.666;2023-03-22T07:40:54;12.50;99.90
3226;DHT22;1625;49.884;8.666;2023-03-22T07:43:21;12.50;99.90
3226;DHT22;1625;49.884;8.666;2023-03-22T07:45:50;12.50;99.90
3226;DHT22;1625;49.884;8.666;2023-03-22T07:48:20;12.60;99.90
3226;DHT22;1625;49.884;8.666;2023-03-22T07:50:45;12.70;99.90
3226;DHT22;1625;49.884;8.666;2023-03-22T07:53:11;12.90;99.90
3226;DHT22;1625;49.884;8.666;2023-03-22T07:55:37;13.00;99.90
3226;DHT22;1625;49.884;8.666;2023-03-22T07:58:04;13.10;99.90
3226;DHT22;1625;49.884;8.666;2023-03-22T08:00:30;13.20;99.90
3226;DHT22;1625;49.884;8.666;2023-03-22T08:02:56;13.30;99.90
3226;DHT22;1625;49.884;8.666;2023-03-22T08:05:21;13.40;99.90
3226;DHT22;1625;49.884;8.666;2023-03-22T08:07:48;13.40;99.90
3226;DHT22;1625;49.884;8.666;2023-03-22T08:10:13;13.40;99.90
3226;DHT22;1625;49.884;8.666;2023-03-22T08:12:40;13.60;99.90
3226;DHT22;1625;49.884;8.666;2023-03-22T08:15:12;13.70;99.90
3226;DHT22;1625;49.884;8.666;2023-03-22T08:17:47;13.70;99.90
3226;DHT22;1625;49.884;8.666;2023-03-22T08:20:15;13.70;99.90
3226;DHT22;1625;49.884;8.666;2023-03-22T08:22:43;13.70;99.90
3226;DHT22;1625;49.884;8.666;2023-03-22T08:25:27;13.70;99.90
3226;DHT22;1625;49.884;8.666;2023-03-22T08:27:57;13.80;99.90
3226;DHT22;1625;49.884;8.666;2023-03-22T08:30:22;13.90;99.90
3226;DHT22;1625;49.884;8.666;2023-03-22T08:33:10;14.00;99.90
3226;DHT22;1625;49.884;8.666;2023-03-22T08:35:36;14.00;99.90
3226;DHT22;1625;49.884;8.666;2023-03-22T08:38:02;14.00;99.90
3226;DHT22;1625;49.884;8.666;2023-03-22T08:40:27;14.10;99.90
3226;DHT22;1625;49.884;8.666;2023-03-22T08:42:53;14.10;99.90
3226;DHT22;1625;49.884;8.666;2023-03-22T08:45:18;14.10;99.90
3226;DHT22;1625;49.884;8.666;2023-03-22T08:47:44;14.00;99.90
3226;DHT22;1625;49.884;8.666;2023-03-22T08:50:10;14.40;99.90
3226;DHT22;1625;49.884;8.666;2023-03-22T08:52:36;14.20;99.90
3226;DHT22;1625;49.884;8.666;2023-03-22T08:55:03;14.20;99.90
3226;DHT22;1625;49.884;8.666;2023-03-22T08:57:29;14.30;99.90
3226;DHT22;1625;49.884;8.666;2023-03-22T08:59:55;14.50;99.90
3226;DHT22;1625;49.884;8.666;2023-03-22T09:02:23;14.50;99.90
3226;DHT22;1625;49.884;8.666;2023-03-22T09:04:49;14.60;99.90
3226;DHT22;1625;49.884;8.666;2023-03-22T09:07:14;14.70;99.90
3226;DHT22;1625;49.884;8.666;2023-03-22T09:09:42;14.70;99.90
3226;DHT22;1625;49.884;8.666;2023-03-22T09:12:07;14.70;99.90
3226;DHT22;1625;49.884;8.666;2023-03-22T09:14:33;14.70;99.90
3226;DHT22;1625;49.884;8.666;2023-03-22T09:17:00;14.60;99.90
3226;DHT22;1625;49.884;8.666;2023-03-22T09:19:27;14.70;99.90
3226;DHT22;1625;49.884;8.666;2023-03-22T09:24:19;14.70;99.90
3226;DHT22;1625;49.884;8.666;2023-03-22T09:26:45;14.80;99.90
3226;DHT22;1625;49.884;8.666;2023-03-22T09:29:11;14.50;99.90
3226;DHT22;1625;49.884;8.666;2023-03-22T09:31:37;14.80;99.90
3226;DHT22;1625;49.884;8.666;2023-03-22T09:34:02;14.80;99.90
3226;DHT22;1625;49.884;8.666;2023-03-22T09:36:28;14.90;99.90
3226;DHT22;1625;49.884;8.666;2023-03-22T09:38:53;14.90;99.90
3226;DHT22;1625;49.884;8.666;2023-03-22T09:43:53;15.10;99.90
3226;DHT22;1625;49.884;8.666;2023-03-22T09:46:28;15.10;99.90
3226;DHT22;1625;49.884;8.666;2023-03-22T09:48:56;15.20;99.90
3226;DHT22;1625;49.884;8.666;2023-03-22T09:51:49;15.20;99.90
3226;DHT22;1625;49.884;8.666;2023-03-22T09:54:17;15.20;99.90
3226;DHT22;1625;49.884;8.666;2023-03-22T09:56:54;15.20;99.90
3226;DHT22;1625;49.884;8.666;2023-03-22T10:10:15;15.30;99.90
3226;DHT22;1625;49.884;8.666;2023-03-22T10:12:59;15.30;99.90
3226;DHT22;1625;49.884;8.666;2023-03-22T10:15:37;15.10;99.90
3226;DHT22;1625;49.884;8.666;2023-03-22T10:18:06;15.20;99.90
3226;DHT22;1625;49.884;8.666;2023-03-22T10:20:41;15.20;99.90
3226;DHT22;1625;49.884;8.666;2023-03-22T10:23:19;15.10;99.90
3226;DHT22;1625;49.884;8.666;2023-03-22T10:25:46;15.10;99.90
3226;DHT22;1625;49.884;8.666;2023-03-22T10:28:18;15.40;99.90
3226;DHT22;1625;49.884;8.666;2023-03-22T10:30:49;15.10;99.90
3226;DHT22;1625;49.884;8.666;2023-03-22T10:33:42;15.00;99.90
3226;DHT22;1625;49.884;8.666;2023-03-22T10:36:15;15.10;99.90
3226;DHT22;1625;49.884;8.666;2023-03-22T10:38:48;14.90;99.90
3226;DHT22;1625;49.884;8.666;2023-03-22T10:41:16;15.00;99.90
3226;DHT22;1625;49.884;8.666;2023-03-22T10:43:43;15.10;99.90
3226;DHT22;1625;49.884;8.666;2023-03-22T10:46:21;15.10;99.90
3226;DHT22;1625;49.884;8.666;2023-03-22T10:48:50;15.60;99.90
3226;DHT22;1625;49.884;8.666;2023-03-22T10:51:28;15.10;99.90
3226;DHT22;1625;49.884;8.666;2023-03-22T10:53:55;15.10;99.90
3226;DHT22;1625;49.884;8.666;2023-03-22T10:56:23;16.20;99.90
3226;DHT22;1625;49.884;8.666;2023-03-22T10:58:50;16.00;99.90
3226;DHT22;1625;49.884;8.666;2023-03-22T11:01:25;15.40;99.90
3226;DHT22;1625;49.884;8.666;2023-03-22T11:03:56;16.60;99.90
3226;DHT22;1625;49.884;8.666;2023-03-22T11:06:27;15.80;99.90
3226;DHT22;1625;49.884;8.666;2023-03-22T11:08:59;15.80;99.90
3226;DHT22;1625;49.884;8.666;2023-03-22T11:11:26;15.90;99.90
3226;DHT22;1625;49.884;8.666;2023-03-22T11:14:11;15.90;99.90
3226;DHT22;1625;49.884;8.666;2023-03-22T11:16:58;15.90;99.90
3226;DHT22;1625;49.884;8.666;2023-03-22T11:19:30;15.90;99.90
3226;DHT22;1625;49.884;8.666;2023-03-22T11:21:58;15.90;99.90
3226;DHT22;1625;49.884;8.666;2023-03-22T11:24:29;15.90;99.90
3226;DHT22;1625;49.884;8.666;2023-03-22T11:29:45;16.00;99.90
3226;DHT22;1625;49.884;8.666;2023-03-22T11:32:37;16.20;99.90
3226;DHT22;1625;49.884;8.666;2023-03-22T11:37:29;16.10;99.90
3226;DHT22;1625;49.884;8.666;2023-03-22T11:39:59;16.40;99.90
3226;DHT22;1625;49.884;8.666;2023-03-22T11:42:26;16.60;99.90
3226;DHT22;1625;49.884;8.666;2023-03-22T11:44:54;16.70;99.90
3226;DHT22;1625;49.884;8.666;2023-03-22T11:47:20;16.80;99.90
3226;DHT22;1625;49.884;8.666;2023-03-22T11:49:50;16.90;99.90
3226;DHT22;1625;49.884;8.666;2023-03-22T11:52:23;16.90;99.90
3226;DHT22;1625;49.884;8.666;2023-03-22T11:54:50;16.90;99.90
3226;DHT22;1625;49.884;8.666;2023-03-22T11:57:23;16.90;99.90
3226;DHT22;1625;49.884;8.666;2023-03-22T12:00:00;16.90;99.90
3226;DHT22;1625;49.884;8.666;2023-03-22T12:02:35;16.90;99.90
3226;DHT22;1625;49.884;8.666;2023-03-22T12:05:17;17.00;99.90
3226;DHT22;1625;49.884;8.666;2023-03-22T12:07:44;17.20;99.90
3226;DHT22;1625;49.884;8.666;2023-03-22T12:12:54;17.30;99.90
3226;DHT22;1625;49.884;8.666;2023-03-22T12:15:25;17.30;99.90
3226;DHT22;1625;49.884;8.666;2023-03-22T12:17:55;17.30;99.90
3226;DHT22;1625;49.884;8.666;2023-03-22T12:20:42;17.40;99.90
3226;DHT22;1625;49.884;8.666;2023-03-22T12:23:14;17.40;99.90
3226;DHT22;1625;49.884;8.666;2023-03-22T12:25:45;17.30;99.90
3226;DHT22;1625;49.884;8.666;2023-03-22T12:28:14;17.30;99.90
3226;DHT22;1625;49.884;8.666;2023-03-22T12:30:46;17.40;99.90
3226;DHT22;1625;49.884;8.666;2023-03-22T12:33:28;17.40;99.90
3226;DHT22;1625;49.884;8.666;2023-03-22T12:36:03;17.40;99.90
3226;DHT22;1625;49.884;8.666;2023-03-22T12:38:47;17.30;99.90
3226;DHT22;1625;49.884;8.666;2023-03-22T12:41:34;17.40;99.90
3226;DHT22;1625;49.884;8.666;2023-03-22T12:46:52;17.60;99.90
3226;DHT22;1625;49.884;8.666;2023-03-22T12:51:51;17.80;99.90
3226;DHT22;1625;49.884;8.666;2023-03-22T12:54:21;17.90;99.90
3226;DHT22;1625;49.884;8.666;2023-03-22T12:56:48;17.80;99.90
3226;DHT22;1625;49.884;8.666;2023-03-22T12:59:17;18.40;99.90
3226;DHT22;1625;49.884;8.666;2023-03-22T13:02:15;17.80;99.90
3226;DHT22;1625;49.884;8.666;2023-03-22T13:07:15;18.00;99.90
3226;DHT22;1625;49.884;8.666;2023-03-22T13:09:50;18.00;99.90
3226;DHT22;1625;49.884;8.666;2023-03-22T13:15:00;18.20;99.90
3226;DHT22;1625;49.884;8.666;2023-03-22T13:27:36;18.50;99.90
3226;DHT22;1625;49.884;8.666;2023-03-22T13:30:04;18.60;99.90
3226;DHT22;1625;49.884;8.666;2023-03-22T13:32:34;18.50;99.90
3226;DHT22;1625;49.884;8.666;2023-03-22T13:40:36;18.80;99.90
3226;DHT22;1625;49.884;8.666;2023-03-22T13:52:00;19.30;99.90
3226;DHT22;1625;49.884;8.666;2023-03-22T13:54:35;19.30;99.90
3226;DHT22;1625;49.884;8.666;2023-03-22T13:57:01;19.30;99.90
3226;DHT22;1625;49.884;8.666;2023-03-22T13:59:58;19.30;99.90
3226;DHT22;1625;49.884;8.666;2023-03-22T14:02:27;19.40;99.90
3226;DHT22;1625;49.884;8.666;2023-03-22T14:04:55;19.50;99.90
3226;DHT22;1625;49.884;8.666;2023-03-22T14:13:17;19.50;99.90
3226;DHT22;1625;49.884;8.666;2023-03-22T14:15:48;19.60;99.90
3226;DHT22;1625;49.884;8.666;2023-03-22T14:18:24;19.70;99.90
3226;DHT22;1625;49.884;8.666;2023-03-22T14:20:59;19.80;99.90
3226;DHT22;1625;49.884;8.666;2023-03-22T14:23:44;19.60;99.90
3226;DHT22;1625;49.884;8.666;2023-03-22T14:26:17;19.30;99.90
3226;DHT22;1625;49.884;8.666;2023-03-22T14:28:44;19.30;99.90
3226;DHT22;1625;49.884;8.666;2023-03-22T14:31:23;19.10;99.90
3226;DHT22;1625;49.884;8.666;2023-03-22T14:33:50;19.10;99.90
3226;DHT22;1625;49.884;8.666;2023-03-22T14:36:17;19.20;99.90
3226;DHT22;1625;49.884;8.666;2023-03-22T14:38:46;19.30;99.90
3226;DHT22;1625;49.884;8.666;2023-03-22T14:41:18;19.30;99.90
3226;DHT22;1625;49.884;8.666;2023-03-22T14:43:47;19.20;99.90
3226;DHT22;1625;49.884;8.666;2023-03-22T14:46:16;19.00;99.90
3226;DHT22;1625;49.884;8.666;2023-03-22T14:48:46;19.10;99.90
3226;DHT22;1625;49.884;8.666;2023-03-22T14:51:20;19.20;99.90
3226;DHT22;1625;49.884;8.666;2023-03-22T14:53:47;19.40;99.90
3226;DHT22;1625;49.884;8.666;2023-03-22T14:56:28;19.60;99.90
3226;DHT22;1625;49.884;8.666;2023-03-22T14:58:56;19.70;99.90
3226;DHT22;1625;49.884;8.666;2023-03-22T15:01:27;19.60;99.90
3226;DHT22;1625;49.884;8.666;2023-03-22T15:03:56;19.40;99.90
3226;DHT22;1625;49.884;8.666;2023-03-22T15:06:25;19.20;99.90
3226;DHT22;1625;49.884;8.666;2023-03-22T15:08:51;19.30;99.90
3226;DHT22;1625;49.884;8.666;2023-03-22T15:11:18;19.20;99.90
3226;DHT22;1625;49.884;8.666;2023-03-22T15:13:45;18.90;99.90
3226;DHT22;1625;49.884;8.666;2023-03-22T15:16:19;18.80;99.90
3226;DHT22;1625;49.884;8.666;2023-03-22T15:18:48;18.60;99.90
3226;DHT22;1625;49.884;8.666;2023-03-22T15:21:15;18.50;99.90
3226;DHT22;1625;49.884;8.666;2023-03-22T15:23:52;18.30;99.90
3226;DHT22;1625;49.884;8.666;2023-03-22T15:26:25;18.30;99.90
3226;DHT22;1625;49.884;8.666;2023-03-22T15:28:57;18.30;99.90
3226;DHT22;1625;49.884;8.666;2023-03-22T15:31:32;18.40;99.90
3226;DHT22;1625;49.884;8.666;2023-03-22T15:34:00;18.30;99.90
3226;DHT22;1625;49.884;8.666;2023-03-22T15:36:30;18.30;99.90
3226;DHT22;1625;49.884;8.666;2023-03-22T15:39:00;18.10;99.90
3226;DHT22;1625;49.884;8.666;2023-03-22T15:41:37;18.00;99.90
3226;DHT22;1625;49.884;8.666;2023-03-22T15:44:27;17.80;99.90
3226;DHT22;1625;49.884;8.666;2023-03-22T15:46:54;17.70;99.90
3226;DHT22;1625;49.884;8.666;2023-03-22T15:52:17;17.50;99.90
3226;DHT22;1625;49.884;8.666;2023-03-22T15:57:49;17.30;99.90
3226;DHT22;1625;49.884;8.666;2023-03-22T16:05:34;17.20;99.90
3226;DHT22;1625;49.884;8.666;2023-03-22T16:08:00;17.10;99.90
3226;DHT22;1625;49.884;8.666;2023-03-22T16:10:28;17.10;99.90
3226;DHT22;1625;49.884;8.666;2023-03-22T16:12:54;17.20;99.90
3226;DHT22;1625;49.884;8.666;2023-03-22T16:15:23;17.10;99.90
3226;DHT22;1625;49.884;8.666;2023-03-22T16:17:50;17.10;99.90
3226;DHT22;1625;49.884;8.666;2023-03-22T16:20:16;17.10;99.90
3226;DHT22;1625;49.884;8.666;2023-03-22T16:22:45;17.00;99.90
3226;DHT22;1625;49.884;8.666;2023-03-22T16:25:16;17.00;99.90
3226;DHT22;1625;49.884;8.666;2023-03-22T16:27:43;17.00;99.90
3226;DHT22;1625;49.884;8.666;2023-03-22T16:30:09;17.00;99.90
3226;DHT22;1625;49.884;8.666;2023-03-22T16:32:35;17.00;99.90
3226;DHT22;1625;49.884;8.666;2023-03-22T16:35:00;17.00;99.90
3226;DHT22;1625;49.884;8.666;2023-03-22T16:37:26;16.90;99.90
3226;DHT22;1625;49.884;8.666;2023-03-22T16:39:52;16.90;99.90
3226;DHT22;1625;49.884;8.666;2023-03-22T16:42:21;16.90;99.90
3226;DHT22;1625;49.884;8.666;2023-03-22T16:44:49;16.80;99.90
3226;DHT22;1625;49.884;8.666;2023-03-22T16:47:21;16.80;99.90
3226;DHT22;1625;49.884;8.666;2023-03-22T16:49:49;16.80;99.90
3226;DHT22;1625;49.884;8.666;2023-03-22T16:52:17;16.80;99.90
3226;DHT22;1625;49.884;8.666;2023-03-22T16:54:47;16.80;99.90
3226;DHT22;1625;49.884;8.666;2023-03-22T16:57:18;16.70;99.90
3226;DHT22;1625;49.884;8.666;2023-03-22T16:59:44;16.70;99.90
3226;DHT22;1625;49.884;8.666;2023-03-22T17:02:17;16.70;99.90
3226;DHT22;1625;49.884;8.666;2023-03-22T17:04:44;16.70;99.90
3226;DHT22;1625;49.884;8.666;2023-03-22T17:07:15;16.70;99.90
3226;DHT22;1625;49.884;8.666;2023-03-22T17:09:42;16.70;99.90
3226;DHT22;1625;49.884;8.666;2023-03-22T17:12:17;16.70;99.90
3226;DHT22;1625;49.884;8.666;2023-03-22T17:14:44;16.70;99.90
3226;DHT22;1625;49.884;8.666;2023-03-22T17:17:09;16.70;99.90
3226;DHT22;1625;49.884;8.666;2023-03-22T17:19:35;16.70;99.90
3226;DHT22;1625;49.884;8.666;2023-03-22T17:22:01;16.70;99.90
3226;DHT22;1625;49.884;8.666;2023-03-22T17:24:26;16.60;99.90
3226;DHT22;1625;49.884;8.666;2023-03-22T17:26:52;16.60;99.90
3226;DHT22;1625;49.884;8.666;2023-03-22T17:29:19;16.70;99.90
3226;DHT22;1625;49.884;8.666;2023-03-22T17:31:45;16.60;99.90
3226;DHT22;1625;49.884;8.666;2023-03-22T17:34:11;16.50;99.90
3226;DHT22;1625;49.884;8.666;2023-03-22T17:36:37;16.60;99.90
3226;DHT22;1625;49.884;8.666;2023-03-22T17:39:02;16.60;99.90
3226;DHT22;1625;49.884;8.666;2023-03-22T17:41:31;16.60;99.90
3226;DHT22;1625;49.884;8.666;2023-03-22T17:43:56;16.60;99.90
3226;DHT22;1625;49.884;8.666;2023-03-22T17:46:22;16.50;99.90
3226;DHT22;1625;49.884;8.666;2023-03-22T17:48:48;16.50;99.90
3226;DHT22;1625;49.884;8.666;2023-03-22T17:51:13;16.50;99.90
3226;DHT22;1625;49.884;8.666;2023-03-22T17:53:39;16.50;99.90
3226;DHT22;1625;49.884;8.666;2023-03-22T17:56:05;16.40;99.90
3226;DHT22;1625;49.884;8.666;2023-03-22T17:58:30;16.40;99.90
3226;DHT22;1625;49.884;8.666;2023-03-22T18:00:56;16.40;99.90
3226;DHT22;1625;49.884;8.666;2023-03-22T18:03:22;16.30;99.90
3226;DHT22;1625;49.884;8.666;2023-03-22T18:05:47;16.30;99.90
3226;DHT22;1625;49.884;8.666;2023-03-22T18:08:13;16.20;99.90
3226;DHT22;1625;49.884;8.666;2023-03-22T18:10:42;16.10;99.90
3226;DHT22;1625;49.884;8.666;2023-03-22T18:13:07;16.10;99.90
3226;DHT22;1625;49.884;8.666;2023-03-22T18:15:33;16.10;99.90
3226;DHT22;1625;49.884;8.666;2023-03-22T18:17:58;16.10;99.90
3226;DHT22;1625;49.884;8.666;2023-03-22T18:20:24;16.10;99.90
3226;DHT22;1625;49.884;8.666;2023-03-22T18:22:51;16.10;99.90
3226;DHT22;1625;49.884;8.666;2023-03-22T18:25:18;16.10;99.90
3226;DHT22;1625;49.884;8.666;2023-03-22T18:27:44;16.00;99.90
3226;DHT22;1625;49.884;8.666;2023-03-22T18:30:12;16.00;99.90
3226;DHT22;1625;49.884;8.666;2023-03-22T18:32:38;16.00;99.90
3226;DHT22;1625;49.884;8.666;2023-03-22T18:35:04;16.00;99.90
3226;DHT22;1625;49.884;8.666;2023-03-22T18:37:30;16.00;99.90
3226;DHT22;1625;49.884;8.666;2023-03-22T18:39:57;16.10;99.90
3226;DHT22;1625;49.884;8.666;2023-03-22T18:42:23;16.10;99.90
3226;DHT22;1625;49.884;8.666;2023-03-22T18:44:48;16.00;99.90
3226;DHT22;1625;49.884;8.666;2023-03-22T18:47:14;16.00;99.90
3226;DHT22;1625;49.884;8.666;2023-03-22T18:49:42;16.00;99.90
3226;DHT22;1625;49.884;8.666;2023-03-22T18:52:08;16.00;99.90
3226;DHT22;1625;49.884;8.666;2023-03-22T18:54:34;16.00;99.90
3226;DHT22;1625;49.884;8.666;2023-03-22T18:57:00;16.00;99.90
3226;DHT22;1625;49.884;8.666;2023-03-22T18:59:27;15.90;99.90
3226;DHT22;1625;49.884;8.666;2023-03-22T19:01:55;15.90;99.90
3226;DHT22;1625;49.884;8.666;2023-03-22T19:04:20;15.90;99.90
3226;DHT22;1625;49.884;8.666;2023-03-22T19:06:46;15.90;99.90
3226;DHT22;1625;49.884;8.666;2023-03-22T19:09:12;15.90;99.90
3226;DHT22;1625;49.884;8.666;2023-03-22T19:11:39;15.90;99.90
3226;DHT22;1625;49.884;8.666;2023-03-22T19:14:05;15.90;99.90
3226;DHT22;1625;49.884;8.666;2023-03-22T19:16:31;15.90;99.90
3226;DHT22;1625;49.884;8.666;2023-03-22T19:18:57;16.00;99.90
3226;DHT22;1625;49.884;8.666;2023-03-22T19:21:23;15.90;99.90
3226;DHT22;1625;49.884;8.666;2023-03-22T19:23:49;15.90;99.90
3226;DHT22;1625;49.884;8.666;2023-03-22T19:26:15;15.90;99.90
3226;DHT22;1625;49.884;8.666;2023-03-22T19:28:40;15.90;99.90
3226;DHT22;1625;49.884;8.666;2023-03-22T19:31:05;15.90;99.90
3226;DHT22;1625;49.884;8.666;2023-03-22T19:33:32;15.80;99.90
3226;DHT22;1625;49.884;8.666;2023-03-22T19:35:57;15.90;99.90
3226;DHT22;1625;49.884;8.666;2023-03-22T19:38:23;15.90;99.90
3226;DHT22;1625;49.884;8.666;2023-03-22T19:40:48;15.80;99.90
3226;DHT22;1625;49.884;8.666;2023-03-22T19:43:14;15.80;99.90
3226;DHT22;1625;49.884;8.666;2023-03-22T19:45:45;15.90;99.90
3226;DHT22;1625;49.884;8.666;2023-03-22T19:48:12;15.80;99.90
3226;DHT22;1625;49.884;8.666;2023-03-22T19:50:39;15.80;99.90
3226;DHT22;1625;49.884;8.666;2023-03-22T19:53:07;15.80;99.90
3226;DHT22;1625;49.884;8.666;2023-03-22T19:55:33;15.80;99.90
3226;DHT22;1625;49.884;8.666;2023-03-22T19:57:59;15.80;99.90
3226;DHT22;1625;49.884;8.666;2023-03-22T20:00:26;15.80;99.90